UUWW/VKO METAR and TAF weather

Enter ICAO airport designator
Station Type Date Time Source
UUWW METAR 2022/06/29 00:00 UTC NOAA

UUWW 290000Z 12002MPS CAVOK 15/05 Q1024 R06/000070 NOSIG


Station Type Date Time Source
UUWW Decoded METAR 2022/06/29 00:00 UTC NOAA

Moscow / Vnukovo , Russia (UUWW) 55-39N 037-16E
Jun 28, 2022 - 08:00 PM EDT / 2022.06.29 0000 UTC
Wind: from the ESE (120 degrees) at 4 MPH (4 KT):0
Visibility: greater than 7 mile(s):0
Temperature: 59 F (15 C)
Dew Point: 41 F (5 C)
Relative Humidity: 51%
Pressure (altimeter): 30.24 in. Hg (1024 hPa)
ob: UUWW 290000Z 12002MPS CAVOK 15/05 Q1024 R06/000070 NOSIG
cycle: 0

Station Type Date Time Source
UUWW TAF 2022/06/28 21:21 UTC NOAA

TAF UUWW 281955Z 2821/2921 03003MPS 9999 SCT040 TX25/2912Z TN10/2901Z
TEMPO 2906/2915 09005G12MPS

Example: see airport list